createdAt,value
2023-05-19T00:02:24.342Z,99424.00
2023-05-19T00:05:16.263Z,99400.97
2023-05-19T00:07:49.898Z,99414.22
2023-05-19T00:10:32.008Z,99426.72
2023-05-19T00:13:03.881Z,99419.81
2023-05-19T00:15:35.957Z,99417.41
2023-05-19T00:18:04.164Z,99417.50
2023-05-19T00:20:37.285Z,99410.03
2023-05-19T00:23:10.990Z,99417.88
2023-05-19T00:25:46.350Z,99427.16
2023-05-19T00:28:14.683Z,99422.06
2023-05-19T00:30:42.973Z,99420.91
2023-05-19T00:33:11.628Z,99417.88
2023-05-19T00:35:47.490Z,99416.63
2023-05-19T00:38:21.561Z,99415.03
2023-05-19T00:40:52.195Z,99416.50
2023-05-19T00:43:41.256Z,99423.84
2023-05-19T00:46:13.940Z,99430.56
2023-05-19T00:48:44.754Z,99436.00
2023-05-19T00:51:16.988Z,99427.41
2023-05-19T00:53:59.236Z,99425.78
2023-05-19T00:56:28.986Z,99425.00
2023-05-19T00:58:58.532Z,99427.41
2023-05-19T01:01:28.031Z,99431.22
2023-05-19T01:04:00.087Z,99429.44
2023-05-19T01:06:29.783Z,99424.09
2023-05-19T01:08:58.726Z,99426.50
2023-05-19T01:11:28.202Z,99420.59
2023-05-19T01:13:56.822Z,99421.06
2023-05-19T01:16:30.860Z,99427.59
2023-05-19T01:19:11.123Z,99421.69
2023-05-19T01:22:08.060Z,99426.81
2023-05-19T01:25:01.576Z,99416.25
2023-05-19T01:27:45.649Z,99424.00
2023-05-19T01:30:27.219Z,99431.38
2023-05-19T01:32:59.503Z,99427.25
2023-05-19T01:35:28.818Z,99431.81
2023-05-19T01:38:00.251Z,99441.13
2023-05-19T01:40:30.438Z,99429.25
2023-05-19T01:43:01.160Z,99426.91
2023-05-19T01:45:32.980Z,99438.22
2023-05-19T01:48:04.363Z,99445.28
2023-05-19T01:50:33.709Z,99435.84
2023-05-19T01:53:02.896Z,99442.28
2023-05-19T01:55:31.340Z,99442.28
2023-05-19T01:58:11.730Z,99435.28
2023-05-19T02:00:52.727Z,99445.47
2023-05-19T02:03:32.618Z,99445.47
2023-05-19T02:06:11.307Z,99445.00
2023-05-19T02:08:44.248Z,99446.84
2023-05-19T02:11:21.777Z,99443.44
2023-05-19T02:13:53.441Z,99448.53
2023-05-19T02:16:28.036Z,99451.38
2023-05-19T02:18:57.559Z,99444.00
2023-05-19T02:21:25.957Z,99451.19
2023-05-19T02:23:54.114Z,99451.50
2023-05-19T02:26:22.917Z,99452.78
2023-05-19T02:28:51.113Z,99454.56
2023-05-19T02:31:19.248Z,99453.09
2023-05-19T02:33:48.878Z,99458.53
2023-05-19T02:36:17.219Z,99467.19
2023-05-19T02:38:45.381Z,99462.06
2023-05-19T02:41:13.566Z,99466.25
2023-05-19T02:43:41.788Z,99470.56
2023-05-19T02:46:09.967Z,99465.78
2023-05-19T02:48:38.250Z,99477.00
2023-05-19T02:51:07.910Z,99476.09
2023-05-19T02:53:36.124Z,99476.78
2023-05-19T02:56:04.591Z,99483.31
2023-05-19T02:58:32.823Z,99480.16
2023-05-19T03:01:01.079Z,99489.78
2023-05-19T03:03:29.279Z,99492.84
2023-05-19T03:05:57.487Z,99489.66
2023-05-19T03:08:27.366Z,99501.00
2023-05-19T03:10:55.569Z,99501.78
2023-05-19T03:13:23.889Z,99504.97
2023-05-19T03:15:52.027Z,99506.13
2023-05-19T03:18:20.274Z,99506.22
2023-05-19T03:20:48.585Z,99505.91
2023-05-19T03:23:16.907Z,99500.31
2023-05-19T03:25:46.443Z,99500.00
2023-05-19T03:28:14.644Z,99498.06
2023-05-19T03:30:42.783Z,99498.19
2023-05-19T03:33:11.197Z,99495.94
2023-05-19T03:35:39.579Z,99501.16
2023-05-19T03:38:07.735Z,99507.22
2023-05-19T03:40:35.863Z,99506.34
2023-05-19T03:43:05.589Z,99513.94
2023-05-19T03:45:33.823Z,99512.25
2023-05-19T03:48:02.048Z,99517.41
2023-05-19T03:50:32.000Z,99518.97
2023-05-19T03:53:00.541Z,99516.28
2023-05-19T03:55:29.947Z,99518.53
2023-05-19T03:57:58.314Z,99524.78
2023-05-19T04:00:27.829Z,99526.81
2023-05-19T04:02:56.245Z,99527.16
2023-05-19T04:05:24.492Z,99519.22
2023-05-19T04:07:53.100Z,99514.19
2023-05-19T04:10:21.437Z,99518.25
2023-05-19T04:12:49.699Z,99506.78
2023-05-19T04:15:17.961Z,99518.06
2023-05-19T04:17:47.769Z,99516.81
2023-05-19T04:20:17.179Z,99514.88
2023-05-19T04:22:45.580Z,99507.38
2023-05-19T04:25:13.823Z,99512.84
2023-05-19T04:27:42.577Z,99508.63
2023-05-19T04:30:12.209Z,99508.31
2023-05-19T04:32:41.665Z,99519.72
2023-05-19T04:35:23.601Z,99518.38
2023-05-19T04:37:54.416Z,99516.63
2023-05-19T04:40:23.949Z,99518.34
2023-05-19T04:42:53.036Z,99522.84
2023-05-19T04:45:21.246Z,99516.72
2023-05-19T04:47:49.447Z,99522.03
2023-05-19T04:50:19.122Z,99527.69
2023-05-19T04:52:47.297Z,99536.16
2023-05-19T04:55:16.035Z,99536.81
2023-05-19T04:57:44.702Z,99540.50
2023-05-19T05:00:14.627Z,99542.84
2023-05-19T05:02:43.656Z,99544.63
2023-05-19T05:05:12.070Z,99547.19
2023-05-19T05:07:41.912Z,99545.91
2023-05-19T05:10:11.562Z,99543.00
2023-05-19T05:12:40.370Z,99542.44
2023-05-19T05:15:09.946Z,99540.25
2023-05-19T05:17:38.714Z,99535.31
2023-05-19T05:20:08.524Z,99528.53
2023-05-19T05:22:38.700Z,99534.06
2023-05-19T05:25:10.335Z,99533.34
2023-05-19T05:27:38.602Z,99538.56
2023-05-19T05:30:07.791Z,99545.41
2023-05-19T05:32:36.025Z,99543.31
2023-05-19T05:35:04.340Z,99537.22
2023-05-19T05:37:32.653Z,99529.97
2023-05-19T05:40:00.812Z,99537.50
2023-05-19T05:42:30.360Z,99532.56
2023-05-19T05:44:58.468Z,99536.59
2023-05-19T05:47:27.209Z,99531.69
2023-05-19T05:49:56.052Z,99532.63
2023-05-19T05:52:28.980Z,99532.84
2023-05-19T05:54:58.058Z,99528.72
2023-05-19T05:57:27.089Z,99524.63
2023-05-19T05:59:56.729Z,99539.75
2023-05-19T06:02:24.980Z,99532.19
2023-05-19T06:04:54.224Z,99540.66
2023-05-19T06:07:22.908Z,99536.50
2023-05-19T06:09:51.214Z,99543.69
2023-05-19T06:12:19.408Z,99543.88
2023-05-19T06:14:47.754Z,99536.13
2023-05-19T06:17:17.352Z,99536.66
2023-05-19T06:19:45.594Z,99547.72
2023-05-19T06:22:13.691Z,99548.25
2023-05-19T06:24:41.963Z,99547.25
2023-05-19T06:27:10.164Z,99547.00
2023-05-19T06:29:38.356Z,99548.72
2023-05-19T06:32:06.669Z,99554.78
2023-05-19T06:34:38.367Z,99554.56
2023-05-19T06:37:06.461Z,99545.22
2023-05-19T06:39:34.489Z,99555.44
2023-05-19T06:42:02.524Z,99544.44
2023-05-19T06:44:30.652Z,99544.47
2023-05-19T06:46:58.898Z,99550.44
2023-05-19T06:49:29.436Z,99550.13
2023-05-19T06:51:59.110Z,99545.59
2023-05-19T06:54:27.277Z,99546.13
2023-05-19T06:56:55.780Z,99550.94
2023-05-19T06:59:23.959Z,99548.28
2023-05-19T07:01:52.107Z,99549.56
2023-05-19T07:04:20.248Z,99542.97
2023-05-19T07:06:50.257Z,99549.34
2023-05-19T07:09:22.250Z,99542.25
2023-05-19T07:11:50.368Z,99544.28
2023-05-19T07:14:18.551Z,99546.16
2023-05-19T07:16:46.771Z,99545.28
2023-05-19T07:19:15.097Z,99541.34
2023-05-19T07:21:43.653Z,99543.78
2023-05-19T07:24:11.747Z,99549.38
2023-05-19T07:26:42.651Z,99560.16
2023-05-19T07:29:10.779Z,99559.94
2023-05-19T07:31:38.974Z,99546.56
2023-05-19T07:34:07.146Z,99557.03
2023-05-19T07:36:35.385Z,99547.97
2023-05-19T07:39:04.220Z,99541.78
2023-05-19T07:41:33.828Z,99550.50
2023-05-19T07:44:07.583Z,99540.72
2023-05-19T07:46:36.219Z,99542.03
2023-05-19T07:49:04.550Z,99543.66
2023-05-19T07:51:32.767Z,99543.66
2023-05-19T07:54:01.173Z,99543.75
2023-05-19T07:56:29.588Z,99550.19
2023-05-19T07:58:57.876Z,99547.50
2023-05-19T08:01:28.362Z,99547.94
2023-05-19T08:03:56.617Z,99535.38
2023-05-19T08:06:25.430Z,99534.25
2023-05-19T08:08:54.318Z,99527.59
2023-05-19T08:11:22.678Z,99531.53
2023-05-19T08:13:51.018Z,99524.44
2023-05-19T08:16:19.162Z,99525.25
2023-05-19T08:18:49.104Z,99526.81
2023-05-19T08:21:20.060Z,99524.06
2023-05-19T08:24:21.149Z,99523.28
2023-05-19T08:26:49.440Z,99515.41
2023-05-19T08:29:17.659Z,99525.25
2023-05-19T08:31:58.571Z,99527.66
2023-05-19T08:34:48.785Z,99528.44
2023-05-19T08:37:17.223Z,99530.34
2023-05-19T08:39:45.559Z,99529.13
2023-05-19T08:42:14.172Z,99535.75
2023-05-19T08:44:44.134Z,99532.03
2023-05-19T08:47:28.246Z,99532.69
2023-05-19T08:50:11.326Z,99532.16
2023-05-19T08:52:52.415Z,99527.25
2023-05-19T08:55:41.840Z,99529.19
2023-05-19T08:58:38.534Z,99527.13
2023-05-19T09:01:16.122Z,99517.22
2023-05-19T09:03:53.932Z,99523.47
2023-05-19T09:06:45.489Z,99518.72
2023-05-19T09:09:13.950Z,99527.50
2023-05-19T09:11:45.248Z,99520.44
2023-05-19T09:14:16.092Z,99522.41
2023-05-19T09:16:50.038Z,99516.91
2023-05-19T09:19:21.489Z,99516.53
2023-05-19T09:22:28.037Z,99514.50
2023-05-19T09:25:25.378Z,99508.63
2023-05-19T09:28:37.525Z,99507.06
2023-05-19T09:31:15.855Z,99497.72
2023-05-19T09:34:00.579Z,99501.34
2023-05-19T09:39:53.240Z,99509.63
2023-05-19T09:42:30.438Z,99506.91
2023-05-19T09:45:02.702Z,99503.41
2023-05-19T09:47:43.836Z,99502.97
2023-05-19T09:50:17.330Z,99498.56
2023-05-19T09:52:51.724Z,99485.53
2023-05-19T09:55:23.299Z,99488.28
2023-05-19T09:57:53.003Z,99479.47
2023-05-19T10:00:27.026Z,99488.03
2023-05-19T10:02:57.692Z,99476.03
2023-05-19T10:05:28.982Z,99476.69
2023-05-19T10:07:57.561Z,99480.69
2023-05-19T10:10:29.092Z,99484.81
2023-05-19T10:13:08.732Z,99487.03
2023-05-19T10:15:58.937Z,99481.09
2023-05-19T10:18:29.811Z,99489.78
2023-05-19T10:21:08.186Z,99495.34
2023-05-19T10:23:39.830Z,99487.28
2023-05-19T10:26:11.441Z,99484.69
2023-05-19T10:28:48.873Z,99483.41
2023-05-19T10:31:20.806Z,99476.94
2023-05-19T10:34:06.677Z,99467.38
2023-05-19T10:36:47.654Z,99468.81
2023-05-19T10:39:28.247Z,99463.72
2023-05-19T10:42:09.085Z,99455.59
2023-05-19T10:45:07.969Z,99456.63
2023-05-19T10:47:45.575Z,99456.13
2023-05-19T10:50:19.708Z,99440.88
2023-05-19T10:52:58.064Z,99446.47
2023-05-19T10:55:59.087Z,99439.53
2023-05-19T10:59:01.696Z,99436.75
2023-05-19T11:01:45.485Z,99430.09
2023-05-19T11:04:16.146Z,99430.94
2023-05-19T11:06:57.190Z,99428.56
2023-05-19T11:09:40.045Z,99425.13
2023-05-19T11:12:11.996Z,99423.91
2023-05-19T11:15:01.387Z,99424.94
2023-05-19T11:17:31.434Z,99424.44
2023-05-19T11:20:00.948Z,99417.50
2023-05-19T11:22:39.576Z,99405.59
2023-05-19T11:25:09.193Z,99410.41
2023-05-19T11:27:41.463Z,99404.13
2023-05-19T11:30:17.963Z,99406.94
2023-05-19T11:32:49.730Z,99413.22
2023-05-19T11:35:28.437Z,99409.88
2023-05-19T11:37:57.666Z,99407.38
2023-05-19T11:40:30.296Z,99408.66
2023-05-19T11:43:25.054Z,99410.22
2023-05-19T11:49:10.670Z,99394.38
2023-05-19T11:51:40.935Z,99392.88
2023-05-19T11:54:27.781Z,99387.09
2023-05-19T11:56:56.077Z,99380.75
2023-05-19T11:59:36.258Z,99381.94
2023-05-19T12:02:20.107Z,99374.72
2023-05-19T12:04:58.174Z,99365.50
2023-05-19T12:07:33.611Z,99363.91
2023-05-19T12:10:06.445Z,99363.66
2023-05-19T12:12:36.609Z,99363.66
2023-05-19T12:15:07.386Z,99356.00
2023-05-19T12:17:37.490Z,99356.34
2023-05-19T12:20:14.078Z,99355.63
2023-05-19T12:23:02.728Z,99356.53
2023-05-19T12:25:32.082Z,99350.06
2023-05-19T12:28:03.577Z,99356.53
2023-05-19T12:30:33.628Z,99349.53
2023-05-19T12:33:05.181Z,99344.31
2023-05-19T12:35:34.492Z,99341.34
2023-05-19T12:38:07.862Z,99347.94
2023-05-19T12:40:37.528Z,99342.53
2023-05-19T12:43:07.014Z,99340.00
2023-05-19T12:45:39.023Z,99341.63
2023-05-19T12:48:16.066Z,99335.31
2023-05-19T12:50:45.290Z,99335.31
2023-05-19T12:53:13.860Z,99334.94
2023-05-19T12:55:43.775Z,99346.97
2023-05-19T12:58:12.693Z,99343.09
2023-05-19T13:00:45.291Z,99338.66
2023-05-19T13:03:22.386Z,99355.38
2023-05-19T13:05:52.406Z,99342.19
2023-05-19T13:08:30.026Z,99348.44
2023-05-19T13:10:58.359Z,99338.75
2023-05-19T13:13:27.063Z,99343.09
2023-05-19T13:15:58.539Z,99342.22
2023-05-19T13:21:18.669Z,99335.69
2023-05-19T13:23:46.834Z,99332.06
2023-05-19T13:26:24.386Z,99338.22
2023-05-19T13:28:55.715Z,99352.81
2023-05-19T13:31:29.125Z,99363.75
2023-05-19T13:34:01.384Z,99372.31
2023-05-19T13:36:33.417Z,99363.31
2023-05-19T13:42:15.747Z,99373.13
2023-05-19T13:44:48.725Z,99386.28
2023-05-19T13:47:29.983Z,99406.59
2023-05-19T13:49:59.776Z,99416.72
2023-05-19T13:52:29.790Z,99421.75
2023-05-19T13:55:06.451Z,99426.06
2023-05-19T13:57:41.596Z,99445.28
2023-05-19T14:00:24.439Z,99442.16
2023-05-19T14:02:52.994Z,99441.63
2023-05-19T14:05:23.230Z,99438.91
2023-05-19T14:07:57.812Z,99441.75
2023-05-19T14:10:46.161Z,99436.88
2023-05-19T14:13:32.595Z,99437.22
2023-05-19T14:16:02.972Z,99423.00
2023-05-19T14:18:32.526Z,99415.13
2023-05-19T14:21:02.262Z,99410.34
2023-05-19T14:23:30.812Z,99421.41
2023-05-19T14:25:59.055Z,99416.94
2023-05-19T14:28:27.464Z,99411.56
2023-05-19T14:30:55.627Z,99417.47
2023-05-19T14:33:24.138Z,99407.91
2023-05-19T14:36:00.347Z,99399.19
2023-05-19T14:38:29.930Z,99405.47
2023-05-19T14:40:58.214Z,99401.16
2023-05-19T14:43:26.290Z,99401.53
2023-05-19T14:45:54.352Z,99403.53
2023-05-19T14:48:22.457Z,99407.84
2023-05-19T14:50:50.644Z,99408.31
2023-05-19T14:53:18.738Z,99401.53
2023-05-19T14:55:50.271Z,99414.16
2023-05-19T14:58:28.160Z,99417.06
2023-05-19T15:00:59.132Z,99432.16
2023-05-19T15:03:27.355Z,99427.59
2023-05-19T15:05:55.394Z,99437.38
2023-05-19T15:08:23.503Z,99450.28
2023-05-19T15:10:52.842Z,99452.63
2023-05-19T15:13:21.576Z,99448.63
2023-05-19T15:15:49.754Z,99448.66
2023-05-19T15:18:18.870Z,99447.47
2023-05-19T15:20:46.906Z,99442.19
2023-05-19T15:23:14.970Z,99452.19
2023-05-19T15:25:43.092Z,99453.28
2023-05-19T15:28:13.674Z,99456.03
2023-05-19T15:30:42.971Z,99445.28
2023-05-19T15:33:11.797Z,99439.34
2023-05-19T15:35:39.915Z,99438.34
2023-05-19T15:38:08.001Z,99426.63
2023-05-19T15:40:36.324Z,99426.00
2023-05-19T15:43:04.361Z,99414.91
2023-05-19T15:45:33.914Z,99418.03
2023-05-19T15:48:01.942Z,99414.91
2023-05-19T15:50:30.287Z,99411.25
2023-05-19T15:52:58.456Z,99409.16
2023-05-19T15:55:26.645Z,99409.03
2023-05-19T15:57:54.562Z,99412.38
2023-05-19T16:00:22.815Z,99406.41
2023-05-19T16:02:53.779Z,99409.47
2023-05-19T16:05:21.988Z,99408.16
2023-05-19T16:07:50.005Z,99407.53
2023-05-19T16:10:18.152Z,99395.50
2023-05-19T16:12:46.171Z,99403.13
2023-05-19T16:15:14.216Z,99398.09
2023-05-19T16:17:42.277Z,99394.63
2023-05-19T16:20:12.711Z,99385.63
2023-05-19T16:22:40.746Z,99379.81
2023-05-19T16:25:09.774Z,99386.09
2023-05-19T16:27:37.689Z,99365.69
2023-05-19T16:30:06.654Z,99358.63
2023-05-19T16:32:34.768Z,99351.91
2023-05-19T16:35:02.945Z,99358.97
2023-05-19T16:37:32.422Z,99365.63
2023-05-19T16:40:00.432Z,99349.81
2023-05-19T16:42:28.539Z,99355.72
2023-05-19T16:44:56.855Z,99357.69
2023-05-19T16:47:24.946Z,99368.28
2023-05-19T16:49:53.068Z,99369.84
2023-05-19T16:52:21.062Z,99371.03
2023-05-19T16:54:50.462Z,99379.59
2023-05-19T16:57:18.526Z,99382.28
2023-05-19T16:59:46.487Z,99381.50
2023-05-19T17:02:14.595Z,99386.63
2023-05-19T17:04:42.639Z,99394.09
2023-05-19T17:07:15.520Z,99390.16
2023-05-19T17:09:43.730Z,99386.63
2023-05-19T17:12:13.379Z,99392.06
2023-05-19T17:14:42.340Z,99393.97
2023-05-19T17:17:10.595Z,99392.69
2023-05-19T17:19:38.655Z,99389.84
2023-05-19T17:22:06.632Z,99397.63
2023-05-19T17:24:34.555Z,99403.81
2023-05-19T17:27:02.799Z,99404.50
2023-05-19T17:29:32.319Z,99410.59
2023-05-19T17:32:00.458Z,99406.47
2023-05-19T17:34:30.107Z,99409.84
2023-05-19T17:36:58.188Z,99410.00
2023-05-19T17:39:26.279Z,99416.81
2023-05-19T17:41:54.262Z,99417.81
2023-05-19T17:44:22.308Z,99419.50
2023-05-19T17:46:51.827Z,99427.81
2023-05-19T17:49:20.073Z,99426.34
2023-05-19T17:51:48.532Z,99421.28
2023-05-19T17:54:17.120Z,99425.59
2023-05-19T17:56:46.453Z,99434.28
2023-05-19T17:59:14.769Z,99430.00
2023-05-19T18:01:43.454Z,99432.81
2023-05-19T18:04:16.501Z,99438.72
2023-05-19T18:06:45.820Z,99442.72
2023-05-19T18:09:15.059Z,99455.03
2023-05-19T18:11:43.064Z,99457.84
2023-05-19T18:14:11.524Z,99451.72
2023-05-19T18:16:39.551Z,99459.22
2023-05-19T18:19:07.806Z,99463.66
2023-05-19T18:21:37.269Z,99464.91
2023-05-19T18:24:05.954Z,99470.09
2023-05-19T18:26:34.287Z,99480.72
2023-05-19T18:29:04.908Z,99491.47
2023-05-19T18:31:33.162Z,99496.03
2023-05-19T18:34:01.175Z,99499.84
2023-05-19T18:36:29.182Z,99501.19
2023-05-19T18:39:00.567Z,99502.84
2023-05-19T18:41:28.968Z,99504.16
2023-05-19T18:43:56.945Z,99501.81
2023-05-19T18:46:25.296Z,99502.44
2023-05-19T18:48:53.380Z,99506.19
2023-05-19T18:51:21.815Z,99513.56
2023-05-19T18:53:50.660Z,99510.06
2023-05-19T18:56:26.110Z,99506.78
2023-05-19T18:58:54.305Z,99507.47
2023-05-19T19:01:22.349Z,99506.56
2023-05-19T19:03:50.644Z,99504.56
2023-05-19T19:06:20.662Z,99509.09
2023-05-19T19:08:48.781Z,99501.25
2023-05-19T19:11:16.794Z,99507.63
2023-05-19T19:13:46.386Z,99517.53
2023-05-19T19:16:14.444Z,99507.63
2023-05-19T19:18:42.409Z,99513.31
2023-05-19T19:21:10.370Z,99507.28
2023-05-19T19:23:39.403Z,99500.94
2023-05-19T19:26:08.559Z,99507.06
2023-05-19T19:28:37.058Z,99508.53
2023-05-19T19:31:06.564Z,99511.13
2023-05-19T19:33:34.705Z,99521.91
2023-05-19T19:36:02.758Z,99523.28
2023-05-19T19:38:30.905Z,99529.38
2023-05-19T19:40:59.190Z,99524.28
2023-05-19T19:43:27.333Z,99525.88
2023-05-19T19:46:00.681Z,99530.53
2023-05-19T19:48:30.164Z,99531.31
2023-05-19T19:50:58.648Z,99536.22
2023-05-19T19:53:27.049Z,99538.25
2023-05-19T19:55:59.375Z,99534.16
2023-05-19T19:58:28.265Z,99537.94
2023-05-19T20:00:59.778Z,99549.72
2023-05-19T20:03:29.610Z,99551.91
2023-05-19T20:05:58.151Z,99560.78
2023-05-19T20:08:26.991Z,99568.84
2023-05-19T20:10:55.455Z,99577.69
2023-05-19T20:13:23.800Z,99587.00
2023-05-19T20:15:51.841Z,99584.31
2023-05-19T20:18:19.862Z,99594.19
2023-05-19T20:20:49.219Z,99597.22
2023-05-19T20:23:17.230Z,99602.31
2023-05-19T20:26:02.343Z,99607.16
2023-05-19T20:28:35.032Z,99609.66
2023-05-19T20:31:03.237Z,99609.66
2023-05-19T20:33:31.775Z,99591.59
2023-05-19T20:36:01.349Z,99595.69
2023-05-19T20:38:29.304Z,99588.25
2023-05-19T20:40:57.341Z,99586.78
2023-05-19T20:43:25.555Z,99583.97
2023-05-19T20:45:53.532Z,99587.00
2023-05-19T20:48:21.712Z,99571.00
2023-05-19T20:50:49.704Z,99558.28
2023-05-19T20:53:21.295Z,99563.16
2023-05-19T20:55:49.585Z,99563.59
2023-05-19T20:58:17.621Z,99572.25
2023-05-19T21:00:45.603Z,99570.44
2023-05-19T21:03:13.790Z,99580.44
2023-05-19T21:05:41.844Z,99568.63
2023-05-19T21:08:12.792Z,99577.91
2023-05-19T21:10:42.511Z,99578.63
2023-05-19T21:13:10.468Z,99583.66
2023-05-19T21:15:38.658Z,99588.16
2023-05-19T21:18:07.857Z,99586.59
2023-05-19T21:20:35.982Z,99590.47
2023-05-19T21:23:04.146Z,99594.69
2023-05-19T21:25:32.457Z,99602.06
2023-05-19T21:28:01.779Z,99601.09
2023-05-19T21:30:29.771Z,99598.84
2023-05-19T21:32:57.989Z,99605.22
2023-05-19T21:35:26.057Z,99597.53
2023-05-19T21:37:54.146Z,99603.47
2023-05-19T21:40:22.209Z,99611.78
2023-05-19T21:42:50.213Z,99609.63
2023-05-19T21:45:19.704Z,99612.47
2023-05-19T21:47:47.987Z,99610.69
2023-05-19T21:50:17.472Z,99607.22
2023-05-19T21:52:45.524Z,99598.72
2023-05-19T21:55:13.521Z,99600.16
2023-05-19T21:57:41.664Z,99599.84
2023-05-19T22:00:13.154Z,99599.91
2023-05-19T22:02:43.128Z,99598.31
2023-05-19T22:05:12.019Z,99588.22
2023-05-19T22:07:39.983Z,99589.88
2023-05-19T22:10:08.928Z,99579.88
2023-05-19T22:12:36.993Z,99577.34
2023-05-19T22:15:06.573Z,99585.41
2023-05-19T22:17:34.552Z,99580.28
2023-05-19T22:20:04.058Z,99576.66
2023-05-19T22:22:32.275Z,99583.91
2023-05-19T22:25:00.388Z,99580.22
2023-05-19T22:27:28.526Z,99574.97
2023-05-19T22:29:56.684Z,99578.72
2023-05-19T22:32:24.811Z,99572.69
2023-05-19T22:34:52.937Z,99570.47
2023-05-19T22:37:24.258Z,99573.75
2023-05-19T22:39:52.365Z,99569.75
2023-05-19T22:42:20.530Z,99571.56
2023-05-19T22:44:48.672Z,99571.66
2023-05-19T22:47:16.665Z,99562.28
2023-05-19T22:49:44.874Z,99569.69
2023-05-19T22:52:13.098Z,99583.28
2023-05-19T22:54:42.459Z,99577.41
2023-05-19T22:57:10.586Z,99567.97
2023-05-19T22:59:38.771Z,99566.13
2023-05-19T23:02:07.076Z,99578.91
2023-05-19T23:04:35.689Z,99578.91
2023-05-19T23:07:03.944Z,99583.53
2023-05-19T23:09:32.077Z,99583.53
2023-05-19T23:12:01.417Z,99580.69
2023-05-19T23:14:29.509Z,99583.28
2023-05-19T23:16:57.640Z,99588.56
2023-05-19T23:19:25.813Z,99583.78
2023-05-19T23:21:53.783Z,99579.47
2023-05-19T23:24:21.909Z,99586.69
2023-05-19T23:26:50.081Z,99574.09
2023-05-19T23:29:19.568Z,99584.03
2023-05-19T23:31:47.821Z,99580.03
2023-05-19T23:34:16.032Z,99586.13
2023-05-19T23:36:44.009Z,99585.97
2023-05-19T23:39:13.541Z,99580.38
2023-05-19T23:41:41.533Z,99578.97
2023-05-19T23:44:09.948Z,99574.34
2023-05-19T23:46:39.386Z,99575.97
2023-05-19T23:49:07.449Z,99577.41
2023-05-19T23:51:35.601Z,99573.47
2023-05-19T23:54:03.595Z,99574.91
2023-05-19T23:56:31.699Z,99565.16
2023-05-19T23:58:59.736Z,99570.13
